Mac Andrew Mckinney — WDF8971 — position and weather

sailwx.info

Track history (hours):
 
Tides and Currents Weather Stations Pressure Air Temp Water Temp Dewpoint Dewpoint Depression Visibility Wind Speed Wind Dir Waves Ship Positions

Mac Andrew Mckinney

Owner: McKinney Marine, Inc, Baton Rouge, LA. More information available from US FCC via Universal Licensing System and Coast Guard Vessel Documentation Center.

Last reported at 2017-Sep-22 02:01 UTC. Time now 2017-Sep-22 08:16 UTC.
Position N 30°04' W 093°22'.

Length 21 m; draft 3 m.

Type: Tug. MMSI: 367500460.

Date/timePositionNaut miles runAvg speedWind from/ knotsBaromVisibWave heightAir tempDewpointWater temp
2017-Sep-22 02:01N 30°04' W 093°22'0 0.1
2017-Sep-22 01:31N 30°04' W 093°22'1 2.8
2017-Sep-22 01:01N 30°04' W 093°24'2 4.8
2017-Sep-22 00:31N 30°04' W 093°26'2 4.3
2017-Sep-22 00:01N 30°04' W 093°29'2 3.8
2017-Sep-21 23:30N 30°04' W 093°31'2 4.2
2017-Sep-21 23:01N 30°04' W 093°34'2 4.9
2017-Sep-21 22:30N 30°04' W 093°36'3 4.9
2017-Sep-21 21:59N 30°04' W 093°39'2 4.7
2017-Sep-21 21:28N 30°03' W 093°42'  
2017-Sep-18 22:47N 30°04' W 093°32'1 4.2
2017-Sep-18 22:30N 30°04' W 093°30'2 4.2
2017-Sep-18 22:00N 30°04' W 093°28'2 3.6
2017-Sep-18 21:30N 30°04' W 093°26'2 4.1
2017-Sep-18 21:00N 30°04' W 093°24'2 3.6
2017-Sep-18 20:30N 30°04' W 093°22'2 3.1
2017-Sep-18 20:00N 30°05' W 093°20'2 3.7
2017-Sep-18 19:30N 30°06' W 093°19'2 3.2
2017-Sep-18 19:00N 30°05' W 093°17'2 3.4
2017-Sep-18 18:30N 30°04' W 093°16'1 2.9
2017-Sep-18 18:00N 30°02' W 093°16'2 4.2
2017-Sep-18 17:30N 30°01' W 093°14'2 4.2
2017-Sep-18 17:00N 29°59' W 093°13'2 4.5
2017-Sep-18 16:30N 29°58' W 093°11'2 4.2
2017-Sep-18 16:00N 29°56' W 093°09'2 4.4
2017-Sep-18 15:30N 29°56' W 093°07'2 4.3
2017-Sep-18 15:00N 29°56' W 093°04'2 4.6
2017-Sep-18 14:30N 29°56' W 093°02'2 4.7
2017-Sep-18 13:58N 29°56' W 092°59'33 3.6
2017-Sep-18 04:48N 29°51' W 092°21'1 3.3
2017-Sep-18 04:30N 29°51' W 092°20'1 2.5
2017-Sep-18 03:55N 29°50' W 092°18'1 2.7
2017-Sep-18 03:29N 29°49' W 092°18'1 2.5
2017-Sep-18 03:00N 29°49' W 092°16'1 2.8
2017-Sep-18 02:30N 29°48' W 092°15'2 4.1
2017-Sep-18 02:00N 29°47' W 092°13'2 3.2
2017-Sep-18 01:30N 29°47' W 092°11'2 3.1
2017-Sep-18 01:00N 29°47' W 092°09'2 4.3
2017-Sep-18 00:30N 29°48' W 092°07'2 4.5
2017-Sep-18 00:00N 29°48' W 092°04'2 4.3
2017-Sep-17 23:30N 29°49' W 092°02'2 3.3
2017-Sep-17 23:00N 29°50' W 092°00'  
2017-Sep-15 04:19N 29°56' W 093°04'2 5.1
2017-Sep-15 04:00N 29°56' W 093°06'3 5.7
2017-Sep-15 03:30N 29°56' W 093°09'3 5.5
2017-Sep-15 03:00N 29°58' W 093°11'3 5.2
2017-Sep-15 02:30N 29°60' W 093°13'1 2.7
2017-Sep-15 02:00N 30°01' W 093°14'2 4.5
2017-Sep-15 01:30N 30°03' W 093°16'2 4.3
2017-Sep-15 01:00N 30°05' W 093°17'2 3.5
2017-Sep-15 00:30N 30°06' W 093°18'2 3.6
2017-Sep-15 00:00N 30°05' W 093°20'2 3.9
2017-Sep-14 23:30N 30°04' W 093°22'0 0.1
2017-Sep-14 23:00N 30°04' W 093°22'0 0.0
2017-Sep-14 22:30N 30°04' W 093°22'2 4.3
2017-Sep-14 22:00N 30°05' W 093°20'2 4.1
2017-Sep-14 21:30N 30°04' W 093°21'1 1.7
2017-Sep-14 21:00N 30°04' W 093°22'3 5.2
2017-Sep-14 20:30N 30°04' W 093°25'2 4.2
2017-Sep-14 20:00N 30°04' W 093°28'3 5.9
2017-Sep-14 19:30N 30°04' W 093°31'2 4.3
2017-Sep-14 19:00N 30°04' W 093°34'3 5.4
2017-Sep-14 18:29N 30°04' W 093°37'3 4.9
2017-Sep-14 17:51N 30°04' W 093°41'2 5.3
2017-Sep-14 17:24N 30°03' W 093°43'68 3.7
2017-Sep-13 22:40N 29°31' W 094°53'1 6.9
2017-Sep-13 22:30N 29°32' W 094°54'3 6.7
2017-Sep-13 22:00N 29°34' W 094°56'3 6.4
2017-Sep-13 21:30N 29°37' W 094°58'3 6.6
2017-Sep-13 21:00N 29°40' W 094°59'3 6.0
2017-Sep-13 20:30N 29°42' W 095°01'3 5.6
2017-Sep-13 20:00N 29°44' W 095°04'3 4.8
2017-Sep-13 19:29N 29°47' W 095°05'1 1.9
2017-Sep-13 19:00N 29°47' W 095°04'0 0.0
2017-Sep-13 17:02N 29°47' W 095°04'0 0.9
2017-Sep-13 17:00N 29°47' W 095°04'2 2.0
2017-Sep-13 16:08N 29°46' W 095°05'1 4.3
2017-Sep-13 15:58N 29°46' W 095°06'1 0.1
2017-Sep-13 12:00N 29°46' W 095°05'2 3.6
2017-Sep-13 11:30N 29°47' W 095°04'0 0.8
2017-Sep-13 11:00N 29°47' W 095°04'0 0.0
2017-Sep-13 10:30N 29°47' W 095°04'0 0.0
2017-Sep-13 10:00N 29°47' W 095°04'0 0.0
2017-Sep-13 09:29N 29°47' W 095°04'0 0.0
2017-Sep-13 09:00N 29°47' W 095°04'0 0.0
2017-Sep-13 08:30N 29°47' W 095°04'0 0.2
2017-Sep-13 08:00N 29°47' W 095°04'2 3.2
2017-Sep-13 07:30N 29°46' W 095°04'3 5.8
2017-Sep-13 07:01N 29°44' W 095°02'3 5.5
2017-Sep-13 06:30N 29°42' W 094°60'3 6.1
2017-Sep-13 06:00N 29°39' W 094°58'3 6.3
2017-Sep-13 05:31N 29°36' W 094°57'3 6.1
2017-Sep-13 05:00N 29°34' W 094°55'3 6.1
2017-Sep-13 04:30N 29°31' W 094°53'86 3.9
2017-Sep-12 06:19N 30°04' W 093°22'1 3.0
2017-Sep-12 06:01N 30°04' W 093°21'2 3.4
2017-Sep-12 05:29N 30°06' W 093°19'1 2.3
2017-Sep-12 05:01N 30°06' W 093°18'0 0.2
2017-Sep-12 04:31N 30°06' W 093°18'0 0.1
2017-Sep-12 04:00N 30°06' W 093°18'0 0.1
2017-Sep-12 03:31N 30°06' W 093°18'0 0.0
2017-Sep-12 03:01N 30°06' W 093°18'0 0.0
2017-Sep-12 02:30N 30°06' W 093°18'0 0.0
2017-Sep-12 02:01N 30°06' W 093°18'  
Track history (hours):
 
Tides and Currents Weather Stations Pressure Air Temp Water Temp Dewpoint Dewpoint Depression Visibility Wind Speed Wind Dir Waves Ship Positions

Mac Andrew Mckinney

Owner: McKinney Marine, Inc, Baton Rouge, LA. More information available from US FCC via Universal Licensing System and Coast Guard Vessel Documentation Center.

Last reported at 2017-Sep-22 02:01 UTC. Time now 2017-Sep-22 08:16 UTC.
Position N 30°04' W 093°22'.

Length 21 m; draft 3 m.

Type: Tug. MMSI: 367500460.

Date/timePositionNaut miles runAvg speedWind from/ knotsBaromVisibWave heightAir tempDewpointWater temp
2017-Sep-22 02:01N 30°04' W 093°22'0 0.1
2017-Sep-22 01:31N 30°04' W 093°22'1 2.8
2017-Sep-22 01:01N 30°04' W 093°24'2 4.8
2017-Sep-22 00:31N 30°04' W 093°26'2 4.3
2017-Sep-22 00:01N 30°04' W 093°29'2 3.8
2017-Sep-21 23:30N 30°04' W 093°31'2 4.2
2017-Sep-21 23:01N 30°04' W 093°34'2 4.9
2017-Sep-21 22:30N 30°04' W 093°36'3 4.9
2017-Sep-21 21:59N 30°04' W 093°39'2 4.7
2017-Sep-21 21:28N 30°03' W 093°42'  
2017-Sep-18 22:47N 30°04' W 093°32'1 4.2
2017-Sep-18 22:30N 30°04' W 093°30'2 4.2
2017-Sep-18 22:00N 30°04' W 093°28'2 3.6
2017-Sep-18 21:30N 30°04' W 093°26'2 4.1
2017-Sep-18 21:00N 30°04' W 093°24'2 3.6
2017-Sep-18 20:30N 30°04' W 093°22'2 3.1
2017-Sep-18 20:00N 30°05' W 093°20'2 3.7
2017-Sep-18 19:30N 30°06' W 093°19'2 3.2
2017-Sep-18 19:00N 30°05' W 093°17'2 3.4
2017-Sep-18 18:30N 30°04' W 093°16'1 2.9
2017-Sep-18 18:00N 30°02' W 093°16'2 4.2
2017-Sep-18 17:30N 30°01' W 093°14'2 4.2
2017-Sep-18 17:00N 29°59' W 093°13'2 4.5
2017-Sep-18 16:30N 29°58' W 093°11'2 4.2
2017-Sep-18 16:00N 29°56' W 093°09'2 4.4
2017-Sep-18 15:30N 29°56' W 093°07'2 4.3
2017-Sep-18 15:00N 29°56' W 093°04'2 4.6
2017-Sep-18 14:30N 29°56' W 093°02'2 4.7
2017-Sep-18 13:58N 29°56' W 092°59'33 3.6
2017-Sep-18 04:48N 29°51' W 092°21'1 3.3
2017-Sep-18 04:30N 29°51' W 092°20'1 2.5
2017-Sep-18 03:55N 29°50' W 092°18'1 2.7
2017-Sep-18 03:29N 29°49' W 092°18'1 2.5
2017-Sep-18 03:00N 29°49' W 092°16'1 2.8
2017-Sep-18 02:30N 29°48' W 092°15'2 4.1
2017-Sep-18 02:00N 29°47' W 092°13'2 3.2
2017-Sep-18 01:30N 29°47' W 092°11'2 3.1
2017-Sep-18 01:00N 29°47' W 092°09'2 4.3
2017-Sep-18 00:30N 29°48' W 092°07'2 4.5
2017-Sep-18 00:00N 29°48' W 092°04'2 4.3
2017-Sep-17 23:30N 29°49' W 092°02'2 3.3
2017-Sep-17 23:00N 29°50' W 092°00'  
2017-Sep-15 04:19N 29°56' W 093°04'2 5.1
2017-Sep-15 04:00N 29°56' W 093°06'3 5.7
2017-Sep-15 03:30N 29°56' W 093°09'3 5.5
2017-Sep-15 03:00N 29°58' W 093°11'3 5.2
2017-Sep-15 02:30N 29°60' W 093°13'1 2.7
2017-Sep-15 02:00N 30°01' W 093°14'2 4.5
2017-Sep-15 01:30N 30°03' W 093°16'2 4.3
2017-Sep-15 01:00N 30°05' W 093°17'2 3.5
2017-Sep-15 00:30N 30°06' W 093°18'2 3.6
2017-Sep-15 00:00N 30°05' W 093°20'2 3.9
2017-Sep-14 23:30N 30°04' W 093°22'0 0.1
2017-Sep-14 23:00N 30°04' W 093°22'0 0.0
2017-Sep-14 22:30N 30°04' W 093°22'2 4.3
2017-Sep-14 22:00N 30°05' W 093°20'2 4.1
2017-Sep-14 21:30N 30°04' W 093°21'1 1.7
2017-Sep-14 21:00N 30°04' W 093°22'3 5.2
2017-Sep-14 20:30N 30°04' W 093°25'2 4.2
2017-Sep-14 20:00N 30°04' W 093°28'3 5.9
2017-Sep-14 19:30N 30°04' W 093°31'2 4.3
2017-Sep-14 19:00N 30°04' W 093°34'3 5.4
2017-Sep-14 18:29N 30°04' W 093°37'3 4.9
2017-Sep-14 17:51N 30°04' W 093°41'2 5.3
2017-Sep-14 17:24N 30°03' W 093°43'68 3.7
2017-Sep-13 22:40N 29°31' W 094°53'1 6.9
2017-Sep-13 22:30N 29°32' W 094°54'3 6.7
2017-Sep-13 22:00N 29°34' W 094°56'3 6.4
2017-Sep-13 21:30N 29°37' W 094°58'3 6.6
2017-Sep-13 21:00N 29°40' W 094°59'3 6.0
2017-Sep-13 20:30N 29°42' W 095°01'3 5.6
2017-Sep-13 20:00N 29°44' W 095°04'3 4.8
2017-Sep-13 19:29N 29°47' W 095°05'1 1.9
2017-Sep-13 19:00N 29°47' W 095°04'0 0.0
2017-Sep-13 17:02N 29°47' W 095°04'0 0.9
2017-Sep-13 17:00N 29°47' W 095°04'2 2.0
2017-Sep-13 16:08N 29°46' W 095°05'1 4.3
2017-Sep-13 15:58N 29°46' W 095°06'1 0.1
2017-Sep-13 12:00N 29°46' W 095°05'2 3.6
2017-Sep-13 11:30N 29°47' W 095°04'0 0.8
2017-Sep-13 11:00N 29°47' W 095°04'0 0.0
2017-Sep-13 10:30N 29°47' W 095°04'0 0.0
2017-Sep-13 10:00N 29°47' W 095°04'0 0.0
2017-Sep-13 09:29N 29°47' W 095°04'0 0.0
2017-Sep-13 09:00N 29°47' W 095°04'0 0.0
2017-Sep-13 08:30N 29°47' W 095°04'0 0.2
2017-Sep-13 08:00N 29°47' W 095°04'2 3.2
2017-Sep-13 07:30N 29°46' W 095°04'3 5.8
2017-Sep-13 07:01N 29°44' W 095°02'3 5.5
2017-Sep-13 06:30N 29°42' W 094°60'3 6.1
2017-Sep-13 06:00N 29°39' W 094°58'3 6.3
2017-Sep-13 05:31N 29°36' W 094°57'3 6.1
2017-Sep-13 05:00N 29°34' W 094°55'3 6.1
2017-Sep-13 04:30N 29°31' W 094°53'86 3.9
2017-Sep-12 06:19N 30°04' W 093°22'1 3.0
2017-Sep-12 06:01N 30°04' W 093°21'2 3.4
2017-Sep-12 05:29N 30°06' W 093°19'1 2.3
2017-Sep-12 05:01N 30°06' W 093°18'0 0.2
2017-Sep-12 04:31N 30°06' W 093°18'0 0.1
2017-Sep-12 04:00N 30°06' W 093°18'0 0.1
2017-Sep-12 03:31N 30°06' W 093°18'0 0.0
2017-Sep-12 03:01N 30°06' W 093°18'0 0.0
2017-Sep-12 02:30N 30°06' W 093°18'0 0.0
2017-Sep-12 02:01N 30°06' W 093°18'  

Dump ship's entire track history